createdAt,value
2018-03-23T00:00:26.979Z,9.80
2018-03-23T00:02:54.433Z,9.80
2018-03-23T00:05:21.888Z,9.80
2018-03-23T00:07:49.359Z,9.70
2018-03-23T00:10:16.821Z,9.60
2018-03-23T00:12:45.033Z,9.80
2018-03-23T00:15:12.525Z,9.80
2018-03-23T00:17:39.991Z,9.90
2018-03-23T00:20:07.449Z,9.80
2018-03-23T00:22:34.890Z,9.80
2018-03-23T00:25:02.377Z,9.80
2018-03-23T00:27:29.825Z,9.70
2018-03-23T00:29:57.280Z,9.70
2018-03-23T00:32:24.754Z,9.90
2018-03-23T00:34:52.261Z,9.80
2018-03-23T00:37:20.493Z,9.80
2018-03-23T00:42:22.485Z,9.70
2018-03-23T00:44:49.925Z,9.70
2018-03-23T00:47:17.387Z,9.70
2018-03-23T00:49:44.841Z,9.70
2018-03-23T00:52:12.302Z,9.60
2018-03-23T00:54:40.517Z,9.70
2018-03-23T00:57:08.729Z,9.70
2018-03-23T00:59:36.942Z,9.70
2018-03-23T01:02:04.438Z,9.70
2018-03-23T01:04:32.656Z,9.70
2018-03-23T01:07:00.125Z,9.70
2018-03-23T01:09:27.582Z,9.70
2018-03-23T01:11:55.056Z,9.70
2018-03-23T01:14:24.059Z,9.80
2018-03-23T01:16:52.280Z,9.80
2018-03-23T01:19:19.736Z,9.90
2018-03-23T01:21:47.216Z,9.80
2018-03-23T01:24:14.661Z,9.90
2018-03-23T01:26:42.137Z,9.80
2018-03-23T01:29:10.350Z,9.90
2018-03-23T01:31:37.806Z,9.90
2018-03-23T01:34:05.270Z,9.80
2018-03-23T01:36:32.715Z,9.80
2018-03-23T01:39:00.207Z,9.70
2018-03-23T01:41:27.650Z,9.70
2018-03-23T01:43:55.113Z,9.80
2018-03-23T01:46:22.553Z,9.70
2018-03-23T01:48:50.790Z,9.60
2018-03-23T01:51:18.243Z,9.60
2018-03-23T01:53:45.705Z,9.70
2018-03-23T01:56:13.165Z,9.70
2018-03-23T01:58:41.373Z,9.70
2018-03-23T02:01:10.217Z,9.70
2018-03-23T02:03:37.821Z,9.70
2018-03-23T02:06:05.282Z,9.70
2018-03-23T02:08:32.738Z,9.80
2018-03-23T02:11:00.201Z,9.70
2018-03-23T02:13:27.709Z,9.80
2018-03-23T02:15:55.159Z,9.80
2018-03-23T02:18:22.630Z,9.80
2018-03-23T02:20:50.842Z,9.70
2018-03-23T02:23:18.303Z,9.70
2018-03-23T02:25:45.745Z,9.80
2018-03-23T02:28:13.218Z,9.70
2018-03-23T02:30:41.436Z,9.70
2018-03-23T02:33:08.894Z,9.70
2018-03-23T02:35:36.354Z,9.70
2018-03-23T02:38:03.810Z,9.60
2018-03-23T02:40:31.265Z,9.60
2018-03-23T02:42:58.726Z,9.60
2018-03-23T02:45:26.185Z,9.70
2018-03-23T02:47:53.643Z,9.80
2018-03-23T02:50:21.101Z,9.80
2018-03-23T02:52:48.570Z,9.80
2018-03-23T02:55:16.787Z,9.60
2018-03-23T02:57:44.233Z,9.60
2018-03-23T03:00:11.694Z,9.50
2018-03-23T03:02:39.151Z,9.60
2018-03-23T03:05:06.619Z,9.60
2018-03-23T03:07:34.067Z,9.60
2018-03-23T03:10:01.522Z,9.60
2018-03-23T03:12:28.981Z,9.70
2018-03-23T03:14:56.442Z,9.60
2018-03-23T03:17:23.950Z,9.60
2018-03-23T03:19:51.401Z,9.70
2018-03-23T03:22:18.858Z,9.80
2018-03-23T03:24:46.323Z,9.80
2018-03-23T03:27:14.530Z,9.80
2018-03-23T03:29:42.765Z,9.80
2018-03-23T03:32:10.234Z,9.80
2018-03-23T03:34:37.701Z,9.80
2018-03-23T03:37:05.161Z,9.70
2018-03-23T03:39:32.618Z,9.70
2018-03-23T03:42:00.074Z,9.60
2018-03-23T03:44:27.540Z,9.70
2018-03-23T03:46:54.998Z,9.80
2018-03-23T03:49:22.462Z,9.70
2018-03-23T03:51:50.699Z,9.60
2018-03-23T03:54:18.156Z,9.60
2018-03-23T03:56:45.619Z,9.60
2018-03-23T03:59:13.099Z,9.60
2018-03-23T04:01:40.578Z,9.60
2018-03-23T04:04:08.806Z,9.60
2018-03-23T04:06:36.294Z,9.50
2018-03-23T04:09:03.780Z,9.60
2018-03-23T04:11:32.014Z,9.70
2018-03-23T04:14:00.239Z,9.60
2018-03-23T04:16:27.695Z,9.50
2018-03-23T04:18:55.142Z,9.60
2018-03-23T04:21:23.382Z,9.60
2018-03-23T04:23:50.906Z,9.60
2018-03-23T04:26:18.378Z,9.70
2018-03-23T04:28:45.838Z,9.60
2018-03-23T04:31:13.297Z,9.60
2018-03-23T04:33:40.790Z,9.70
2018-03-23T04:36:09.029Z,9.70
2018-03-23T04:38:36.489Z,9.70
2018-03-23T04:41:03.961Z,9.60
2018-03-23T04:43:31.422Z,9.60
2018-03-23T04:45:58.886Z,9.60
2018-03-23T04:48:26.354Z,9.60
2018-03-23T04:50:53.831Z,9.70
2018-03-23T04:53:22.046Z,9.80
2018-03-23T04:55:49.501Z,9.80
2018-03-23T04:58:16.983Z,9.80
2018-03-23T05:00:45.189Z,9.90
2018-03-23T05:03:12.680Z,9.90
2018-03-23T05:05:40.121Z,9.90
2018-03-23T05:08:07.578Z,9.90
2018-03-23T05:10:35.033Z,9.90
2018-03-23T05:13:02.525Z,9.80
2018-03-23T05:15:29.981Z,9.80
2018-03-23T05:17:57.441Z,9.80
2018-03-23T05:20:24.897Z,10.00
2018-03-23T05:22:52.377Z,9.90
2018-03-23T05:25:19.862Z,9.90
2018-03-23T05:27:48.107Z,9.70
2018-03-23T05:30:15.585Z,9.70
2018-03-23T05:32:43.829Z,9.70
2018-03-23T05:35:11.317Z,9.70
2018-03-23T05:37:40.302Z,9.80
2018-03-23T05:40:07.773Z,9.80
2018-03-23T05:42:35.297Z,9.80
2018-03-23T05:45:02.759Z,9.70
2018-03-23T05:47:30.238Z,9.80
2018-03-23T05:49:57.694Z,9.80
2018-03-23T05:52:25.937Z,9.70
2018-03-23T05:54:53.406Z,9.70
2018-03-23T05:57:20.898Z,9.80
2018-03-23T05:59:49.197Z,9.70
2018-03-23T06:02:16.637Z,9.70
2018-03-23T06:04:44.874Z,9.90
2018-03-23T06:07:12.347Z,9.90
2018-03-23T06:09:39.826Z,9.90
2018-03-23T06:12:08.052Z,10.10
2018-03-23T06:14:35.538Z,10.10
2018-03-23T06:17:03.025Z,10.00
2018-03-23T06:19:31.270Z,10.00
2018-03-23T06:21:58.729Z,10.00
2018-03-23T06:24:26.218Z,10.10
2018-03-23T06:26:54.462Z,10.20
2018-03-23T06:29:21.964Z,10.10
2018-03-23T06:31:49.484Z,10.10
2018-03-23T06:34:16.953Z,10.00
2018-03-23T06:36:45.200Z,10.00
2018-03-23T06:39:12.665Z,10.00
2018-03-23T06:41:40.123Z,10.00
2018-03-23T06:44:08.346Z,10.00
2018-03-23T06:46:35.802Z,10.00
2018-03-23T06:49:03.257Z,10.00
2018-03-23T06:51:30.723Z,10.10
2018-03-23T06:53:58.177Z,10.20
2018-03-23T06:56:25.629Z,10.20
2018-03-23T06:58:53.149Z,10.20
2018-03-23T07:01:20.598Z,10.20
2018-03-23T07:03:48.078Z,10.30
2018-03-23T07:06:15.538Z,10.20
2018-03-23T07:08:42.994Z,10.20
2018-03-23T07:11:10.453Z,10.50
2018-03-23T07:13:37.941Z,10.70
2018-03-23T07:16:05.570Z,10.70
2018-03-23T07:18:33.811Z,10.70
2018-03-23T07:21:01.280Z,10.70
2018-03-23T07:23:29.497Z,10.90
2018-03-23T07:25:56.950Z,10.90
2018-03-23T07:28:24.410Z,10.80
2018-03-23T07:30:52.361Z,10.70
2018-03-23T07:33:20.102Z,10.80
2018-03-23T07:35:47.585Z,10.80
2018-03-23T07:38:15.846Z,10.70
2018-03-23T07:40:43.314Z,10.70
2018-03-23T07:43:10.776Z,10.70
2018-03-23T07:45:38.233Z,10.90
2018-03-23T07:48:05.698Z,10.90
2018-03-23T07:50:33.942Z,10.60
2018-03-23T07:53:01.406Z,10.60
2018-03-23T07:55:28.883Z,10.50
2018-03-23T07:57:56.352Z,10.40
2018-03-23T08:00:24.582Z,10.60
2018-03-23T08:02:52.086Z,10.60
2018-03-23T08:05:20.321Z,10.90
2018-03-23T08:07:48.550Z,10.80
2018-03-23T08:10:16.010Z,10.80
2018-03-23T08:12:43.505Z,10.60
2018-03-23T08:15:10.978Z,10.60
2018-03-23T08:17:38.455Z,10.80
2018-03-23T08:20:06.686Z,11.20
2018-03-23T08:22:34.162Z,11.20
2018-03-23T08:25:02.382Z,10.90
2018-03-23T08:27:31.710Z,11.10
2018-03-23T08:29:59.181Z,11.10
2018-03-23T08:32:26.649Z,11.30
2018-03-23T08:34:54.126Z,11.20
2018-03-23T08:37:21.591Z,11.10
2018-03-23T08:39:50.562Z,10.90
2018-03-23T08:42:18.041Z,10.90
2018-03-23T08:44:45.517Z,11.00
2018-03-23T08:47:12.968Z,11.10
2018-03-23T08:49:41.198Z,11.00
2018-03-23T08:52:08.657Z,11.00
2018-03-23T08:54:36.118Z,11.00
2018-03-23T08:57:03.589Z,10.90
2018-03-23T08:59:31.065Z,10.80
2018-03-23T09:01:59.333Z,10.70
2018-03-23T09:04:26.770Z,10.70
2018-03-23T09:06:54.250Z,10.80
2018-03-23T09:09:21.722Z,10.90
2018-03-23T09:11:49.175Z,11.20
2018-03-23T09:14:17.410Z,11.10
2018-03-23T09:16:44.895Z,11.10
2018-03-23T09:19:13.113Z,11.30
2018-03-23T09:21:41.354Z,11.30
2018-03-23T09:24:08.813Z,11.30
2018-03-23T09:26:36.273Z,11.10
2018-03-23T09:29:03.726Z,11.00
2018-03-23T09:31:31.177Z,11.00
2018-03-23T09:33:58.687Z,11.20
2018-03-23T09:36:26.917Z,11.00
2018-03-23T09:38:54.378Z,10.90
2018-03-23T09:41:21.842Z,11.00
2018-03-23T09:43:50.073Z,10.80
2018-03-23T09:46:18.289Z,10.80
2018-03-23T09:48:46.536Z,10.90
2018-03-23T09:51:13.996Z,10.90
2018-03-23T09:53:41.463Z,11.00
2018-03-23T09:56:08.923Z,11.20
2018-03-23T09:58:36.456Z,11.00
2018-03-23T10:01:03.911Z,10.90
2018-03-23T10:03:31.495Z,11.00
2018-03-23T10:05:58.886Z,11.30
2018-03-23T10:08:26.356Z,11.20
2018-03-23T10:10:53.834Z,11.10
2018-03-23T10:13:21.324Z,11.20
2018-03-23T10:15:48.753Z,11.00
2018-03-23T10:18:16.214Z,11.10
2018-03-23T10:20:43.750Z,11.30
2018-03-23T10:23:11.154Z,11.50
2018-03-23T10:25:38.613Z,11.50
2018-03-23T10:28:06.838Z,11.40
2018-03-23T10:30:34.309Z,11.40
2018-03-23T10:33:01.784Z,11.30
2018-03-23T10:35:29.303Z,11.20
2018-03-23T10:37:56.714Z,11.50
2018-03-23T10:40:24.182Z,11.40
2018-03-23T10:42:52.462Z,11.50
2018-03-23T10:45:20.706Z,11.50
2018-03-23T10:47:48.174Z,11.50
2018-03-23T10:50:15.641Z,11.50
2018-03-23T10:52:43.126Z,11.50
2018-03-23T10:55:11.343Z,11.50
2018-03-23T10:57:38.794Z,11.50
2018-03-23T11:00:06.266Z,11.40
2018-03-23T11:02:43.630Z,11.30
2018-03-23T11:05:11.113Z,11.20
2018-03-23T11:07:38.571Z,11.40
2018-03-23T11:10:06.051Z,11.30
2018-03-23T11:12:33.618Z,11.30
2018-03-23T11:15:01.090Z,11.30
2018-03-23T11:17:28.541Z,11.30
2018-03-23T11:19:56.000Z,11.60
2018-03-23T11:22:23.454Z,11.50
2018-03-23T11:24:50.901Z,11.60
2018-03-23T11:27:18.358Z,11.50
2018-03-23T11:29:46.577Z,11.80
2018-03-23T11:32:14.058Z,11.80
2018-03-23T11:34:41.510Z,11.60
2018-03-23T11:37:08.975Z,11.70
2018-03-23T11:39:36.457Z,11.60
2018-03-23T11:42:03.926Z,11.90
2018-03-23T11:44:31.393Z,11.80
2018-03-23T11:46:58.845Z,12.00
2018-03-23T11:49:26.303Z,12.00
2018-03-23T11:51:53.765Z,12.00
2018-03-23T11:54:21.213Z,11.80
2018-03-23T11:56:48.673Z,11.80
2018-03-23T11:59:16.143Z,11.80
2018-03-23T12:01:44.393Z,11.80
2018-03-23T12:04:11.858Z,11.80
2018-03-23T12:06:39.378Z,11.60
2018-03-23T12:09:07.598Z,11.30
2018-03-23T12:11:35.108Z,11.30
2018-03-23T12:14:02.573Z,11.40
2018-03-23T12:16:30.798Z,11.50
2018-03-23T12:18:59.050Z,11.40
2018-03-23T12:21:26.518Z,11.40
2018-03-23T12:23:53.985Z,11.50
2018-03-23T12:26:22.213Z,11.30
2018-03-23T12:28:49.714Z,11.20
2018-03-23T12:31:17.172Z,11.30
2018-03-23T12:33:44.656Z,11.40
2018-03-23T12:36:12.882Z,11.30
2018-03-23T12:38:40.522Z,11.30
2018-03-23T12:41:08.773Z,11.40
2018-03-23T12:43:36.257Z,11.40
2018-03-23T12:46:03.710Z,11.30
2018-03-23T12:48:31.194Z,11.40
2018-03-23T12:50:58.676Z,11.40
2018-03-23T12:53:26.122Z,11.50
2018-03-23T12:55:53.573Z,11.40
2018-03-23T12:58:21.041Z,11.40
2018-03-23T13:00:48.498Z,11.30
2018-03-23T13:03:17.485Z,11.40
2018-03-23T13:05:44.954Z,11.40
2018-03-23T13:08:12.408Z,11.50
2018-03-23T13:10:39.866Z,11.60
2018-03-23T13:13:07.333Z,11.80
2018-03-23T13:15:35.577Z,12.00
2018-03-23T13:18:03.814Z,11.80
2018-03-23T13:20:31.295Z,11.80
2018-03-23T13:22:58.774Z,11.60
2018-03-23T13:25:26.276Z,11.40
2018-03-23T13:27:53.758Z,11.40
2018-03-23T13:30:21.340Z,11.40
2018-03-23T13:32:48.807Z,11.40
2018-03-23T13:35:16.261Z,11.20
2018-03-23T13:37:44.490Z,11.20
2018-03-23T13:40:11.973Z,11.20
2018-03-23T13:42:39.449Z,11.40
2018-03-23T13:45:06.897Z,11.40
2018-03-23T13:47:34.365Z,11.40
2018-03-23T13:50:01.869Z,11.50
2018-03-23T13:52:29.278Z,11.50
2018-03-23T13:54:56.752Z,11.70
2018-03-23T13:57:24.214Z,11.60
2018-03-23T13:59:57.382Z,11.40
2018-03-23T14:02:25.628Z,11.50
2018-03-23T14:04:53.084Z,11.50
2018-03-23T14:07:20.552Z,11.60
2018-03-23T14:09:48.046Z,11.70
2018-03-23T14:12:15.501Z,11.80
2018-03-23T14:14:42.972Z,11.70
2018-03-23T14:17:11.201Z,11.70
2018-03-23T14:19:38.708Z,11.70
2018-03-23T14:22:06.170Z,11.90
2018-03-23T14:24:34.420Z,11.60
2018-03-23T14:27:01.883Z,11.60
2018-03-23T14:29:29.364Z,11.70
2018-03-23T14:31:56.822Z,11.80
2018-03-23T14:34:24.269Z,12.00
2018-03-23T14:36:51.730Z,11.90
2018-03-23T14:39:19.189Z,11.70
2018-03-23T14:41:46.647Z,11.60
2018-03-23T14:44:14.098Z,11.90
2018-03-23T14:46:41.625Z,11.80
2018-03-23T14:49:09.806Z,11.60
2018-03-23T14:51:37.266Z,11.60
2018-03-23T14:54:04.718Z,11.70
2018-03-23T14:56:32.903Z,11.50
2018-03-23T14:59:05.994Z,11.40
2018-03-23T15:01:33.417Z,11.40
2018-03-23T15:04:00.886Z,11.50
2018-03-23T15:06:28.353Z,11.60
2018-03-23T15:08:55.818Z,11.40
2018-03-23T15:11:23.288Z,11.50
2018-03-23T15:13:50.735Z,11.60
2018-03-23T15:16:18.199Z,11.70
2018-03-23T15:18:45.663Z,11.70
2018-03-23T15:21:13.147Z,11.60
2018-03-23T15:23:41.374Z,11.60
2018-03-23T15:26:08.833Z,11.60
2018-03-23T15:28:37.069Z,11.60
2018-03-23T15:31:04.518Z,11.60
2018-03-23T15:33:31.989Z,11.60
2018-03-23T15:35:59.466Z,11.60
2018-03-23T15:38:26.938Z,11.90
2018-03-23T15:40:54.400Z,12.10
2018-03-23T15:43:21.850Z,12.00
2018-03-23T15:45:50.077Z,11.70
2018-03-23T15:48:18.314Z,11.70
2018-03-23T15:50:46.558Z,11.60
2018-03-23T15:53:14.027Z,11.60
2018-03-23T15:55:41.489Z,11.80
2018-03-23T15:58:08.959Z,11.80
2018-03-23T16:00:36.410Z,11.80
2018-03-23T16:03:03.877Z,11.50
2018-03-23T16:05:31.349Z,11.60
2018-03-23T16:07:58.805Z,11.60
2018-03-23T16:10:26.258Z,11.60
2018-03-23T16:12:53.722Z,11.50
2018-03-23T16:15:21.177Z,11.60
2018-03-23T16:17:48.630Z,11.60
2018-03-23T16:20:16.086Z,11.40
2018-03-23T16:22:43.574Z,11.40
2018-03-23T16:25:11.799Z,11.40
2018-03-23T16:27:40.026Z,11.40
2018-03-23T16:30:07.498Z,11.40
2018-03-23T16:32:34.954Z,11.40
2018-03-23T16:35:02.438Z,11.50
2018-03-23T16:37:29.889Z,11.40
2018-03-23T16:39:57.357Z,11.40
2018-03-23T16:42:24.813Z,11.30
2018-03-23T16:44:52.274Z,11.60
2018-03-23T16:47:20.506Z,11.60
2018-03-23T16:49:47.995Z,11.60
2018-03-23T16:52:15.454Z,11.50
2018-03-23T16:54:42.923Z,11.50
2018-03-23T16:57:10.383Z,11.50
2018-03-23T16:59:37.838Z,11.40
2018-03-23T17:02:05.293Z,11.30
2018-03-23T17:04:32.749Z,11.30
2018-03-23T17:07:00.205Z,11.20
2018-03-23T17:09:27.661Z,11.20
2018-03-23T17:11:55.125Z,11.20
2018-03-23T17:14:22.592Z,11.30
2018-03-23T17:16:50.049Z,11.10
2018-03-23T17:19:17.506Z,11.20
2018-03-23T17:21:45.734Z,11.30
2018-03-23T17:24:13.194Z,11.20
2018-03-23T17:26:40.660Z,11.40
2018-03-23T17:29:08.124Z,11.40
2018-03-23T17:31:35.597Z,11.20
2018-03-23T17:34:03.054Z,11.00
2018-03-23T17:36:30.518Z,11.00
2018-03-23T17:38:57.982Z,11.10
2018-03-23T17:41:25.442Z,11.30
2018-03-23T17:43:52.898Z,11.20
2018-03-23T17:46:20.390Z,11.00
2018-03-23T17:48:47.858Z,11.10
2018-03-23T17:51:16.086Z,11.10
2018-03-23T17:53:44.354Z,11.10
2018-03-23T17:56:11.825Z,11.20
2018-03-23T17:58:39.283Z,11.20
2018-03-23T18:01:06.773Z,11.10
2018-03-23T18:03:36.915Z,11.10
2018-03-23T18:06:04.384Z,11.10
2018-03-23T18:08:31.858Z,11.20
2018-03-23T18:13:32.201Z,11.30
2018-03-23T18:15:59.673Z,11.30
2018-03-23T18:18:27.902Z,11.10
2018-03-23T18:20:55.402Z,11.10
2018-03-23T18:23:23.745Z,11.30
2018-03-23T18:25:51.206Z,11.30
2018-03-23T18:28:18.674Z,11.10
2018-03-23T18:30:46.141Z,11.10
2018-03-23T18:33:13.602Z,11.30
2018-03-23T18:35:41.077Z,11.20
2018-03-23T18:38:09.297Z,11.20
2018-03-23T18:40:36.757Z,11.10
2018-03-23T18:43:04.224Z,11.10
2018-03-23T18:45:31.670Z,11.10
2018-03-23T18:47:59.127Z,11.00
2018-03-23T18:50:26.582Z,10.90
2018-03-23T18:52:54.050Z,11.30
2018-03-23T18:55:21.498Z,11.40
2018-03-23T18:57:48.965Z,11.50
2018-03-23T19:00:16.422Z,11.30
2018-03-23T19:02:43.905Z,11.10
2018-03-23T19:05:11.362Z,11.00
2018-03-23T19:07:38.817Z,10.90
2018-03-23T19:10:06.273Z,11.00
2018-03-23T19:12:33.738Z,11.10
2018-03-23T19:15:01.267Z,11.10
2018-03-23T19:17:28.748Z,11.30
2018-03-23T19:19:56.210Z,11.40
2018-03-23T19:22:23.670Z,11.40
2018-03-23T19:24:51.134Z,11.30
2018-03-23T19:27:18.596Z,11.10
2018-03-23T19:29:46.058Z,11.00
2018-03-23T19:32:14.277Z,11.20
2018-03-23T19:34:42.506Z,11.20
2018-03-23T19:37:10.725Z,11.30
2018-03-23T19:39:38.199Z,11.20
2018-03-23T19:42:05.679Z,11.10
2018-03-23T19:44:33.150Z,11.00
2018-03-23T19:47:00.602Z,11.10
2018-03-23T19:49:28.842Z,11.40
2018-03-23T19:51:56.323Z,11.40
2018-03-23T19:54:23.785Z,11.30
2018-03-23T19:56:51.243Z,11.50
2018-03-23T19:59:18.702Z,11.30
2018-03-23T20:01:46.265Z,11.30
2018-03-23T20:04:14.742Z,11.30
2018-03-23T20:06:42.222Z,11.30
2018-03-23T20:09:10.338Z,11.40
2018-03-23T20:11:38.562Z,11.20
2018-03-23T20:14:10.873Z,11.20
2018-03-23T20:16:39.097Z,11.20
2018-03-23T20:19:06.722Z,11.20
2018-03-23T20:21:34.182Z,11.10
2018-03-23T20:24:08.034Z,11.10
2018-03-23T20:26:35.495Z,11.10
2018-03-23T20:29:02.949Z,11.20
2018-03-23T20:31:36.093Z,11.20
2018-03-23T20:34:03.633Z,11.20
2018-03-23T20:36:31.091Z,11.30
2018-03-23T20:38:58.558Z,11.20
2018-03-23T20:41:26.770Z,11.10
2018-03-23T20:43:54.233Z,11.00
2018-03-23T20:46:21.686Z,11.00
2018-03-23T20:48:49.166Z,10.90
2018-03-23T20:51:16.674Z,11.00
2018-03-23T20:53:44.134Z,11.10
2018-03-23T20:56:11.606Z,11.20
2018-03-23T20:58:39.069Z,11.20
2018-03-23T21:01:06.548Z,11.10
2018-03-23T21:03:33.990Z,11.10
2018-03-23T21:06:02.244Z,11.30
2018-03-23T21:08:30.630Z,11.30
2018-03-23T21:10:58.098Z,11.10
2018-03-23T21:13:25.547Z,11.20
2018-03-23T21:15:53.015Z,10.90
2018-03-23T21:18:20.487Z,11.00
2018-03-23T21:20:47.955Z,11.10
2018-03-23T21:23:15.409Z,11.40
2018-03-23T21:25:42.872Z,11.10
2018-03-23T21:28:11.100Z,11.00
2018-03-23T21:30:39.322Z,10.90
2018-03-23T21:33:06.788Z,10.90
2018-03-23T21:35:34.260Z,10.70
2018-03-23T21:38:03.222Z,11.10
2018-03-23T21:40:30.687Z,11.10
2018-03-23T21:42:59.833Z,11.10
2018-03-23T21:45:27.314Z,11.10
2018-03-23T21:47:58.654Z,11.00
2018-03-23T21:50:26.123Z,10.90
2018-03-23T21:52:53.573Z,10.90
2018-03-23T21:55:21.037Z,11.10
2018-03-23T21:57:48.500Z,11.20
2018-03-23T22:00:15.973Z,11.10
2018-03-23T22:02:43.433Z,10.90
2018-03-23T22:05:10.890Z,11.00
2018-03-23T22:07:38.363Z,11.00
2018-03-23T22:10:05.806Z,11.20
2018-03-23T22:12:33.287Z,11.20
2018-03-23T22:15:00.746Z,11.30
2018-03-23T22:17:29.717Z,10.90
2018-03-23T22:19:57.951Z,10.90
2018-03-23T22:22:25.418Z,10.80
2018-03-23T22:24:52.879Z,10.90
2018-03-23T22:27:20.345Z,10.70
2018-03-23T22:29:47.798Z,11.00
2018-03-23T22:32:15.272Z,11.20
2018-03-23T22:34:42.729Z,11.00
2018-03-23T22:37:10.190Z,11.20
2018-03-23T22:39:37.666Z,11.20
2018-03-23T22:42:05.906Z,11.00
2018-03-23T22:44:33.365Z,11.00
2018-03-23T22:47:00.844Z,10.90
2018-03-23T22:49:28.316Z,10.90
2018-03-23T22:51:55.778Z,10.80
2018-03-23T22:54:23.230Z,10.80
2018-03-23T22:56:52.203Z,11.10
2018-03-23T22:59:19.654Z,11.10
2018-03-23T23:01:47.142Z,11.20
2018-03-23T23:04:14.598Z,11.20
2018-03-23T23:06:42.067Z,11.20
2018-03-23T23:09:09.532Z,11.20
2018-03-23T23:11:37.014Z,11.10
2018-03-23T23:14:04.477Z,11.20
2018-03-23T23:16:32.145Z,11.00
2018-03-23T23:18:59.626Z,11.00
2018-03-23T23:21:27.078Z,10.80
2018-03-23T23:23:54.551Z,10.80
2018-03-23T23:26:22.008Z,10.90
2018-03-23T23:28:49.469Z,10.80
2018-03-23T23:31:17.686Z,10.90
2018-03-23T23:33:45.154Z,10.90
2018-03-23T23:36:12.642Z,10.70
2018-03-23T23:38:40.110Z,10.70
2018-03-23T23:41:07.570Z,11.00
2018-03-23T23:43:35.074Z,10.90
2018-03-23T23:46:03.293Z,10.80
2018-03-23T23:48:30.765Z,10.80
2018-03-23T23:50:58.209Z,10.80
2018-03-23T23:53:25.676Z,11.10
2018-03-23T23:55:53.137Z,11.10
2018-03-23T23:58:20.598Z,11.00
